This is the latest recevied weather packets stored in our database for station/object N2KI-13. If no packets are shown the sender has not sent any weather packets the latest 10 day(s).
| Time | Temp. | Humidity | Pressure | Rain* | Wind** | Luminosity | Snow |
|---|---|---|---|---|---|---|---|
| 1777674005 | 16.67° C | 40% | 1009.5 hPa | 0 mm | - | - | - |
| 1777673704 | 16.67° C | 42% | 1009.5 hPa | 0 mm | - | - | - |
| 1777672805 | 16.67° C | 40% | 1009.6 hPa | 0 mm | - | - | - |
| 1777672503 | 16.67° C | 40% | 1009.5 hPa | 0 mm | - | - | - |
| 1777671904 | 16.67° C | 42% | 1009.5 hPa | 0 mm | - | - | - |
| 1777671604 | 16.67° C | 40% | 1009.4 hPa | 0 mm | - | - | - |
| 1777671304 | 16.67° C | 39% | 1009.4 hPa | 0 mm | - | - | - |
| 1777667704 | 17.78° C | 37% | 1009.2 hPa | 0 mm | - | - | - |
| 1777667403 | 17.78° C | 40% | 1009.2 hPa | 0 mm | - | - | - |
| 1777666503 | 17.22° C | 38% | 1009.4 hPa | 0 mm | - | - | - |
| 1777666204 | 17.22° C | 39% | 1009.5 hPa | 0 mm | - | - | - |
| 1777665903 | 17.22° C | 38% | 1009.5 hPa | 0 mm | - | - | - |
| 1777665604 | 17.78° C | 37% | 1009.5 hPa | 0 mm | - | - | - |
| 1777663203 | 17.22° C | 38% | 1009.7 hPa | 0 mm | - | - | - |
| 1777662305 | 17.22° C | 41% | 1010 hPa | 0 mm | - | - | - |
| 1777661404 | 17.22° C | 39% | 1010.2 hPa | 0 mm | - | - | - |
| 1777660803 | 16.67° C | 42% | 1010.4 hPa | 0 mm | - | - | - |
| 1777660504 | 16.67° C | 40% | 1010.4 hPa | 0 mm | - | - | - |
| 1777658403 | 15.56° C | 43% | 1010.7 hPa | 0 mm | - | - | - |
| 1777657204 | 15.56° C | 40% | 1010.9 hPa | 0 mm | - | - | - |
| 1777656305 | 15° C | 42% | 1011 hPa | 0 mm | - | - | - |
| 1777655404 | 15° C | 41% | 1011.2 hPa | 0 mm | - | - | - |
| 1777651206 | 14.44° C | 46% | 1011.8 hPa | 0 mm | - | - | - |
| 1777649104 | 13.33° C | 52% | 1012.2 hPa | 0 mm | - | - | - |
| 1777645804 | 11.67° C | 53% | 1012.7 hPa | 0 mm | - | - | - |
* Rain latest hour (hover to see other rain measurements)
** Current wind speed in m/s (hover to see current wind gust speed)